Time;durP1;ratioP1;P1;durP2;ratioP2;P2;SDS_P1;SDS_P2;PMS_P1;PMS_P2;Temp;Humidity;BMP_temperature;BMP_pressure;BME280_temperature;BME280_humidity;BME280_pressure;Samples;Min_cycle;Max_cycle;Signal;HPM_P1;HPM_P2
2022/07/15 00:02:13;;;;;;;8.85;2.78;;;12.80;99.90;;;;;;5015854;28;20412;-65
2022/07/15 00:04:39;;;;;;;6.85;2.50;;;;;;;;;;5015914;28;20052;-65
2022/07/15 00:07:06;;;;;;;6.25;2.40;;;12.80;99.90;;;;;;5015826;28;20038;-65
2022/07/15 00:12:16;;;;;;;6.33;2.00;;;12.80;99.90;;;;;;5014434;28;20057;-64
2022/07/15 00:14:42;;;;;;;6.00;2.17;;;13.00;99.90;;;;;;5015536;28;20273;-65
2022/07/15 00:17:07;;;;;;;7.05;2.40;;;13.20;99.90;;;;;;5014627;28;20423;-65
2022/07/15 00:19:34;;;;;;;4.47;2.03;;;12.90;99.90;;;;;;5015773;28;20074;-64
2022/07/15 00:22:00;;;;;;;5.65;1.88;;;13.00;99.90;;;;;;5015660;28;20125;-65
2022/07/15 00:24:27;;;;;;;10.25;2.53;;;13.10;99.90;;;;;;5014361;28;20481;-64
2022/07/15 00:26:53;;;;;;;7.63;2.30;;;;;;;;;;5015675;28;20044;-64
2022/07/15 00:29:19;;;;;;;6.20;2.20;;;12.80;99.90;;;;;;5015823;28;20116;-65
2022/07/15 00:31:44;;;;;;;3.83;2.75;;;13.10;99.90;;;;;;5014307;28;20130;-65
2022/07/15 00:34:10;;;;;;;6.65;2.63;;;13.20;99.90;;;;;;5015521;28;20037;-65
2022/07/15 00:36:35;;;;;;;6.57;2.50;;;13.10;99.90;;;;;;5015554;28;20052;-65
2022/07/15 00:39:01;;;;;;;8.60;2.88;;;13.00;99.90;;;;;;5015177;28;20121;-64
2022/07/15 00:41:34;;;;;;;5.47;2.30;;;13.10;99.90;;;;;;5008432;28;20124;-64
2022/07/15 00:44:00;;;;;;;11.45;2.70;;;13.10;99.90;;;;;;5015489;28;20112;-65
2022/07/15 00:46:25;;;;;;;8.38;3.10;;;13.10;99.90;;;;;;5015599;28;20117;-65
2022/07/15 00:48:51;;;;;;;7.60;2.58;;;13.20;99.90;;;;;;5015489;28;20165;-65
2022/07/15 00:51:16;;;;;;;6.30;2.30;;;13.30;99.90;;;;;;5014305;28;20042;-64
2022/07/15 00:53:45;;;;;;;6.60;2.33;;;13.30;99.90;;;;;;5013985;28;20081;-65
2022/07/15 00:56:12;;;;;;;5.60;2.65;;;13.30;99.90;;;;;;5014825;28;20121;-65
2022/07/15 00:58:41;;;;;;;6.15;2.30;;;13.40;99.90;;;;;;5013649;28;20385;-65
2022/07/15 01:01:07;;;;;;;7.13;3.35;;;13.20;99.90;;;;;;5015198;28;20107;-65
2022/07/15 01:03:33;;;;;;;8.95;3.08;;;13.30;99.90;;;;;;5013660;28;20073;-65
2022/07/15 01:05:59;;;;;;;8.07;2.90;;;13.30;99.90;;;;;;5014027;28;20123;-64
2022/07/15 01:08:25;;;;;;;9.63;2.40;;;13.30;99.90;;;;;;5013951;28;20049;-65
2022/07/15 01:10:52;;;;;;;9.13;2.75;;;13.20;99.90;;;;;;5013634;28;20069;-65
2022/07/15 01:13:19;;;;;;;9.63;3.10;;;13.10;99.90;;;;;;5014297;28;20420;-65
2022/07/15 01:15:45;;;;;;;5.80;2.28;;;13.20;99.90;;;;;;5013863;28;20037;-65
2022/07/15 01:18:11;;;;;;;8.75;2.80;;;13.30;99.90;;;;;;5014893;28;20488;-65
2022/07/15 01:20:46;;;;;;;7.10;2.75;;;13.40;99.90;;;;;;5015042;28;20042;-65
2022/07/15 01:23:12;;;;;;;8.65;2.90;;;13.30;99.90;;;;;;5014404;28;20049;-65
2022/07/15 01:25:39;;;;;;;9.00;2.72;;;13.50;99.90;;;;;;5013074;28;20053;-65
2022/07/15 01:28:06;;;;;;;7.20;1.98;;;13.40;99.90;;;;;;5014739;28;20092;-64
2022/07/15 01:30:32;;;;;;;12.48;2.67;;;13.30;99.90;;;;;;5012851;28;20048;-64
2022/07/15 01:32:57;;;;;;;6.63;2.58;;;13.30;99.90;;;;;;5013826;28;20494;-64
2022/07/15 01:35:23;;;;;;;7.30;2.20;;;13.30;99.90;;;;;;5013497;28;20038;-64
2022/07/15 01:37:49;;;;;;;10.73;2.45;;;13.30;99.90;;;;;;5013569;28;20044;-64
2022/07/15 01:40:15;;;;;;;10.82;3.33;;;13.20;99.90;;;;;;5012281;28;20129;-64
2022/07/15 01:42:41;;;;;;;7.72;2.30;;;13.40;99.90;;;;;;5012224;28;20424;-64
2022/07/15 01:45:08;;;;;;;4.97;2.35;;;13.20;99.90;;;;;;5012465;28;20038;-64
2022/07/15 01:47:40;;;;;;;7.28;2.88;;;13.40;99.90;;;;;;5013630;28;20416;-64
2022/07/15 01:50:07;;;;;;;6.65;2.17;;;13.20;99.90;;;;;;5013481;28;20420;-64
2022/07/15 01:52:33;;;;;;;6.80;1.98;;;13.20;99.90;;;;;;5013593;28;20046;-64
2022/07/15 01:54:58;;;;;;;8.60;2.00;;;13.50;99.90;;;;;;5012235;28;20050;-64
2022/07/15 01:57:24;;;;;;;11.50;2.15;;;13.30;99.90;;;;;;5012175;28;20057;-64
2022/07/15 01:59:50;;;;;;;9.88;3.15;;;;;;;;;;5013277;28;20121;-64
2022/07/15 02:02:16;;;;;;;10.30;2.33;;;13.20;99.90;;;;;;5011834;28;20042;-64
2022/07/15 02:04:41;;;;;;;8.20;2.97;;;13.40;99.90;;;;;;5013111;28;20042;-64
2022/07/15 02:07:07;;;;;;;9.27;2.42;;;13.30;99.90;;;;;;5013120;28;20034;-64
2022/07/15 02:09:33;;;;;;;9.63;3.03;;;13.10;99.90;;;;;;5013401;28;20552;-64
2022/07/15 02:11:58;;;;;;;6.55;2.53;;;13.20;99.90;;;;;;5012637;28;20128;-65
2022/07/15 02:14:24;;;;;;;7.80;2.58;;;13.20;99.90;;;;;;5014124;28;20488;-65
2022/07/15 02:16:50;;;;;;;5.57;2.30;;;12.90;99.90;;;;;;5012147;28;20049;-65
2022/07/15 02:19:16;;;;;;;8.93;2.42;;;13.30;99.90;;;;;;5012520;28;20408;-64
2022/07/15 02:21:41;;;;;;;8.75;2.50;;;12.90;99.90;;;;;;5013840;28;20038;-65
2022/07/15 02:24:07;;;;;;;7.30;2.38;;;12.70;99.90;;;;;;5013483;28;20037;-65
2022/07/15 02:26:33;;;;;;;13.88;3.55;;;12.90;99.90;;;;;;5013522;28;20030;-65
2022/07/15 02:28:59;;;;;;;6.00;1.90;;;12.80;99.90;;;;;;5012604;28;20050;-65
2022/07/15 02:31:24;;;;;;;7.38;2.35;;;12.70;99.90;;;;;;5012019;28;20084;-64
2022/07/15 02:33:50;;;;;;;4.30;1.92;;;12.60;99.90;;;;;;5012276;28;20143;-65
2022/07/15 02:36:16;;;;;;;6.20;2.03;;;12.60;99.90;;;;;;5013395;28;20060;-65
2022/07/15 02:38:42;;;;;;;5.63;2.35;;;12.60;99.90;;;;;;5012046;28;20121;-65
2022/07/15 02:41:08;;;;;;;5.80;2.05;;;12.60;99.90;;;;;;5011825;28;20064;-67
2022/07/15 02:43:34;;;;;;;10.05;2.55;;;12.60;99.90;;;;;;5013361;28;20124;-68
2022/07/15 02:46:00;;;;;;;7.82;2.33;;;12.60;99.90;;;;;;5013313;28;20388;-67
2022/07/15 02:48:26;;;;;;;7.55;1.77;;;12.60;99.90;;;;;;5012552;28;20038;-66
2022/07/15 02:50:51;;;;;;;5.18;2.45;;;12.70;99.90;;;;;;5012847;28;20053;-66
2022/07/15 02:53:18;;;;;;;3.92;1.95;;;12.60;99.90;;;;;;5012555;28;20117;-66
2022/07/15 02:55:44;;;;;;;5.75;2.15;;;12.60;99.90;;;;;;5011343;28;20049;-67
2022/07/15 02:58:09;;;;;;;8.18;2.25;;;12.40;99.90;;;;;;5012591;28;20100;-66
2022/07/15 03:00:35;;;;;;;8.82;2.58;;;12.50;99.90;;;;;;5012681;28;20120;-64
2022/07/15 03:03:01;;;;;;;9.70;2.67;;;12.20;99.90;;;;;;5012233;28;20085;-64
2022/07/15 03:05:26;;;;;;;7.38;2.47;;;12.30;99.90;;;;;;5012580;28;20045;-64
2022/07/15 03:07:52;;;;;;;7.57;2.83;;;12.30;99.90;;;;;;5011412;28;20412;-64
2022/07/15 03:10:18;;;;;;;8.23;2.55;;;12.40;99.90;;;;;;5012280;28;20096;-64
2022/07/15 03:12:43;;;;;;;8.18;2.30;;;12.40;99.90;;;;;;5012780;28;20161;-64
2022/07/15 03:15:11;;;;;;;7.75;2.42;;;12.20;99.90;;;;;;5012327;28;20038;-64
2022/07/15 03:17:37;;;;;;;8.45;2.17;;;12.30;99.90;;;;;;5012290;28;20412;-64
2022/07/15 03:20:03;;;;;;;5.47;1.90;;;12.20;99.90;;;;;;5012446;28;20046;-64
2022/07/15 03:22:29;;;;;;;6.05;2.08;;;12.30;99.90;;;;;;5011319;28;20060;-64
2022/07/15 03:24:54;;;;;;;6.25;1.90;;;12.00;99.90;;;;;;5012513;28;20034;-64
2022/07/15 03:27:20;;;;;;;6.70;1.98;;;12.20;99.90;;;;;;5012367;28;20381;-64
2022/07/15 03:29:45;;;;;;;8.57;2.33;;;12.10;99.90;;;;;;5012401;28;20080;-64
2022/07/15 03:32:12;;;;;;;6.00;1.65;;;12.00;99.90;;;;;;5010977;28;20085;-64
2022/07/15 03:34:38;;;;;;;7.50;2.25;;;12.00;99.90;;;;;;5027583;28;20042;-64
2022/07/15 03:37:03;;;;;;;10.43;1.90;;;12.10;99.90;;;;;;5012402;28;20041;-64
2022/07/15 03:39:29;;;;;;;8.70;2.22;;;12.00;99.90;;;;;;5012073;28;20060;-64
2022/07/15 03:41:54;;;;;;;7.15;2.30;;;12.00;99.90;;;;;;5012398;28;20531;-64
2022/07/15 03:44:20;;;;;;;8.30;2.17;;;12.00;99.90;;;;;;5011887;28;20080;-64
2022/07/15 03:46:46;;;;;;;5.60;2.20;;;12.20;99.90;;;;;;5011922;28;20050;-64
2022/07/15 03:49:15;;;;;;;6.40;2.72;;;12.00;99.90;;;;;;5014028;28;20078;-64
2022/07/15 03:51:40;;;;;;;6.55;2.70;;;11.80;99.90;;;;;;5015901;28;20038;-64
2022/07/15 03:54:06;;;;;;;7.32;2.70;;;12.10;99.90;;;;;;5015798;28;20493;-64
2022/07/15 03:56:33;;;;;;;8.85;2.90;;;12.00;99.90;;;;;;5015611;28;20046;-64
2022/07/15 03:58:59;;;;;;;5.55;1.95;;;11.90;99.90;;;;;;5014285;28;20034;-64
2022/07/15 04:01:25;;;;;;;3.88;1.65;;;11.90;99.90;;;;;;5014263;28;20450;-64
2022/07/15 04:03:52;;;;;;;6.13;2.35;;;11.80;99.90;;;;;;5015350;28;20562;-64
2022/07/15 04:06:18;;;;;;;8.55;1.88;;;11.90;99.90;;;;;;5030966;28;20137;-64
2022/07/15 04:08:44;;;;;;;8.60;2.00;;;11.90;99.90;;;;;;5014240;28;20042;-64
2022/07/15 04:11:11;;;;;;;5.95;1.90;;;11.80;99.90;;;;;;5014413;28;20046;-64
2022/07/15 04:13:37;;;;;;;5.18;1.88;;;12.00;99.90;;;;;;5014087;28;20097;-64
2022/07/15 04:16:03;;;;;;;8.10;2.08;;;12.10;99.90;;;;;;5013684;28;20065;-64
2022/07/15 04:18:29;;;;;;;4.05;1.65;;;11.90;99.90;;;;;;5015165;28;20046;-64
2022/07/15 04:20:54;;;;;;;7.65;2.38;;;12.10;99.90;;;;;;5013983;28;20117;-64
2022/07/15 04:23:20;;;;;;;7.05;2.00;;;12.00;99.90;;;;;;5015067;28;20044;-64
2022/07/15 04:25:45;;;;;;;6.85;2.35;;;11.90;99.90;;;;;;5015034;28;20041;-64
2022/07/15 04:28:12;;;;;;;7.35;2.28;;;11.80;99.90;;;;;;5014950;28;20472;-64
2022/07/15 04:30:37;;;;;;;5.05;2.45;;;11.80;99.90;;;;;;5013752;28;20045;-64
2022/07/15 04:33:03;;;;;;;8.00;2.30;;;12.10;99.90;;;;;;5015080;28;20554;-64
2022/07/15 04:35:29;;;;;;;5.05;2.40;;;12.10;99.90;;;;;;5013689;28;20454;-64
2022/07/15 04:37:55;;;;;;;10.57;2.50;;;12.20;99.90;;;;;;5013620;28;20045;-64
2022/07/15 04:40:20;;;;;;;5.57;2.33;;;12.00;99.90;;;;;;5014581;28;20042;-64
2022/07/15 04:42:46;;;;;;;6.82;2.42;;;;;;;;;;5013252;28;20065;-64
2022/07/15 04:45:12;;;;;;;4.82;1.73;;;12.00;99.90;;;;;;5013264;28;20093;-64
2022/07/15 04:47:39;;;;;;;6.60;2.17;;;12.00;99.90;;;;;;5013405;28;20038;-64
2022/07/15 04:52:49;;;;;;;4.97;1.85;;;12.00;99.90;;;;;;5013524;28;20054;-67
2022/07/15 04:55:15;;;;;;;5.93;2.10;;;12.10;99.90;;;;;;5014345;28;20041;-66
2022/07/15 04:57:41;;;;;;;9.43;2.45;;;12.10;99.90;;;;;;5014239;28;20034;-66
2022/07/15 05:00:09;;;;;;;6.55;3.25;;;12.30;99.90;;;;;;5013336;28;20412;-66
2022/07/15 05:02:35;;;;;;;9.70;2.85;;;12.10;99.90;;;;;;5013053;28;20042;-66
2022/07/15 05:05:01;;;;;;;4.65;2.00;;;12.40;99.90;;;;;;5014086;28;20053;-66
2022/07/15 05:07:26;;;;;;;7.32;2.38;;;12.30;99.90;;;;;;5013958;28;20040;-67
2022/07/15 05:09:52;;;;;;;9.10;1.80;;;12.40;99.90;;;;;;5013014;28;20048;-66
2022/07/15 05:12:18;;;;;;;6.30;2.50;;;12.40;99.90;;;;;;5013921;28;20049;-66
2022/07/15 05:14:44;;;;;;;4.90;2.10;;;12.50;99.90;;;;;;5014397;28;20117;-66
2022/07/15 05:17:11;;;;;;;5.93;1.75;;;12.20;99.90;;;;;;5013932;28;20468;-67
2022/07/15 05:19:36;;;;;;;6.15;2.17;;;12.80;99.90;;;;;;5014101;28;20038;-67
2022/07/15 05:22:02;;;;;;;4.93;2.30;;;12.70;99.90;;;;;;5012500;28;20124;-66
2022/07/15 05:24:27;;;;;;;8.07;2.40;;;13.20;99.90;;;;;;5014029;28;20077;-67
2022/07/15 05:26:53;;;;;;;6.63;1.77;;;13.20;99.90;;;;;;5012758;28;20077;-66
2022/07/15 05:29:21;;;;;;;6.05;2.05;;;14.00;99.90;;;;;;5013864;28;20128;-67
2022/07/15 05:31:50;;;;;;;5.20;2.30;;;13.70;99.90;;;;;;5013868;28;20045;-67
2022/07/15 05:34:16;;;;;;;5.03;1.67;;;14.00;99.90;;;;;;4996229;28;20125;-67
2022/07/15 05:36:42;;;;;;;3.60;1.65;;;13.90;99.90;;;;;;5013608;28;20540;-67
2022/07/15 05:39:07;;;;;;;2.08;1.20;;;13.90;99.90;;;;;;5012167;28;20149;-67
2022/07/15 05:41:33;;;;;;;7.10;1.38;;;14.10;99.90;;;;;;5013672;28;20496;-66
2022/07/15 05:44:00;;;;;;;4.32;1.50;;;13.90;99.90;;;;;;5013629;28;20041;-67
2022/07/15 05:46:25;;;;;;;4.45;1.77;;;13.80;99.90;;;;;;5013730;28;20030;-67
2022/07/15 05:48:51;;;;;;;5.63;1.92;;;13.90;99.90;;;;;;5013711;28;20042;-67
2022/07/15 05:51:17;;;;;;;8.32;1.25;;;13.90;99.90;;;;;;5012840;28;20045;-66
2022/07/15 05:53:43;;;;;;;4.38;1.27;;;14.00;99.90;;;;;;5014082;28;20045;-66
2022/07/15 05:56:09;;;;;;;4.10;1.48;;;14.00;99.90;;;;;;5013644;28;20053;-66
2022/07/15 05:58:35;;;;;;;6.90;1.20;;;13.90;99.90;;;;;;5011892;28;20046;-67
2022/07/15 06:01:00;;;;;;;4.18;1.30;;;14.10;99.90;;;;;;5013278;28;20056;-66
2022/07/15 06:03:26;;;;;;;5.10;1.30;;;14.50;99.90;;;;;;5013405;28;20053;-66
2022/07/15 06:05:52;;;;;;;4.15;1.15;;;14.80;99.90;;;;;;5012081;28;20034;-66
2022/07/15 06:08:17;;;;;;;4.43;1.30;;;15.00;99.90;;;;;;5012840;28;20041;-67
2022/07/15 06:10:43;;;;;;;3.72;1.05;;;15.10;99.90;;;;;;5013430;28;20431;-67
2022/07/15 06:13:08;;;;;;;5.32;1.15;;;15.30;99.90;;;;;;5012839;28;20558;-67
2022/07/15 06:15:34;;;;;;;4.30;1.10;;;15.40;99.90;;;;;;5011211;28;20566;-67
2022/07/15 06:18:00;;;;;;;3.45;1.00;;;15.70;99.90;;;;;;5010579;28;20056;-67
2022/07/15 06:20:26;;;;;;;2.88;0.70;;;16.00;99.90;;;;;;5009411;28;20088;-69
2022/07/15 06:22:51;;;;;;;2.08;0.70;;;16.10;99.90;;;;;;5003073;28;20044;-67
2022/07/15 06:25:17;;;;;;;5.40;0.75;;;16.80;99.90;;;;;;5010483;28;20041;-65
2022/07/15 06:27:43;;;;;;;3.42;0.80;;;17.20;99.90;;;;;;5009204;28;20488;-65
2022/07/15 06:30:09;;;;;;;2.80;0.43;;;17.40;99.90;;;;;;5017302;28;20042;-65
2022/07/15 06:32:35;;;;;;;1.85;0.70;;;17.90;99.90;;;;;;5010399;28;20034;-66
2022/07/15 06:35:01;;;;;;;2.72;0.55;;;18.10;99.90;;;;;;5008282;28;20117;-64
2022/07/15 06:37:30;;;;;;;2.20;0.50;;;18.40;99.90;;;;;;5009519;28;20116;-66
2022/07/15 06:39:55;;;;;;;2.45;0.73;;;18.40;99.90;;;;;;5002346;28;20038;-67
2022/07/15 06:42:24;;;;;;;2.88;0.55;;;18.70;99.90;;;;;;5014367;28;20049;-66
2022/07/15 06:44:50;;;;;;;1.55;0.52;;;19.00;99.90;;;;;;5009028;28;20085;-67
2022/07/15 06:47:15;;;;;;;2.45;0.57;;;19.00;99.90;;;;;;5009501;28;20070;-66
2022/07/15 06:49:41;;;;;;;1.83;0.40;;;19.00;99.90;;;;;;5010809;28;20026;-66
2022/07/15 06:52:07;;;;;;;0.88;0.40;;;18.90;99.90;;;;;;5010134;28;20096;-66
2022/07/15 06:54:33;;;;;;;2.08;0.40;;;18.90;99.90;;;;;;5008826;28;20054;-66
2022/07/15 06:56:59;;;;;;;1.42;0.43;;;18.50;99.90;;;;;;5010426;28;20488;-66
2022/07/15 06:59:25;;;;;;;2.15;0.50;;;18.50;99.90;;;;;;5010609;28;20045;-66
2022/07/15 07:01:52;;;;;;;1.88;0.43;;;18.40;99.90;;;;;;5010464;28;20034;-65
2022/07/15 07:04:17;;;;;;;3.38;0.38;;;18.30;99.90;;;;;;5008886;28;20077;-65
2022/07/15 07:06:43;;;;;;;1.40;0.32;;;18.20;99.90;;;;;;5008437;28;20074;-65
2022/07/15 07:09:09;;;;;;;4.80;0.80;;;17.90;99.90;;;;;;5009294;28;20045;-66
2022/07/15 07:11:34;;;;;;;5.00;0.40;;;17.90;99.90;;;;;;5010429;28;20038;-66
2022/07/15 07:14:00;;;;;;;4.55;0.40;;;17.90;99.90;;;;;;5008895;28;20500;-66
2022/07/15 07:16:26;;;;;;;1.65;0.50;;;17.90;99.90;;;;;;5012152;28;20041;-66
2022/07/15 07:18:52;;;;;;;1.27;0.38;;;18.20;99.90;;;;;;5009640;28;20042;-65
2022/07/15 07:21:19;;;;;;;1.17;0.40;;;18.10;99.90;;;;;;5008734;28;20117;-66
2022/07/15 07:23:45;;;;;;;1.45;0.30;;;17.70;99.90;;;;;;5010795;28;20038;-64
2022/07/15 07:26:12;;;;;;;1.23;0.40;;;18.10;99.90;;;;;;5014182;28;20038;-64
2022/07/15 07:28:41;;;;;;;0.73;0.30;;;17.80;99.90;;;;;;5012381;28;20046;-66
2022/07/15 07:31:11;;;;;;;2.60;0.50;;;17.90;99.90;;;;;;5012777;28;20112;-65
2022/07/15 07:33:37;;;;;;;1.98;0.40;;;17.90;99.90;;;;;;5013519;28;20472;-65
2022/07/15 07:36:04;;;;;;;4.97;0.50;;;17.80;99.90;;;;;;5013799;28;20095;-66
2022/07/15 07:38:31;;;;;;;0.95;0.40;;;17.80;99.90;;;;;;5005092;28;20062;-64
2022/07/15 07:40:57;;;;;;;2.42;0.40;;;17.90;99.90;;;;;;5009058;28;20064;-65
2022/07/15 07:43:23;;;;;;;3.90;0.60;;;18.00;99.90;;;;;;5013152;28;20046;-65
2022/07/15 07:45:50;;;;;;;0.98;0.40;;;18.10;99.90;;;;;;5002679;28;20100;-66
2022/07/15 07:48:19;;;;;;;0.95;0.30;;;18.10;99.90;;;;;;5013119;28;20121;-66
2022/07/15 07:50:45;;;;;;;3.45;0.40;;;18.00;99.90;;;;;;5012295;28;20053;-66
2022/07/15 07:53:11;;;;;;;2.75;0.40;;;18.00;99.90;;;;;;5013347;28;20230;-66
2022/07/15 07:55:38;;;;;;;2.28;0.82;;;17.90;99.90;;;;;;5013646;28;20459;-66
2022/07/15 07:58:03;;;;;;;1.58;0.50;;;18.00;99.90;;;;;;5013886;28;20056;-66
2022/07/15 08:00:30;;;;;;;3.40;0.30;;;18.00;99.90;;;;;;5011921;28;20061;-65
2022/07/15 08:02:58;;;;;;;2.90;0.80;;;18.00;99.90;;;;;;5012749;28;20050;-65
2022/07/15 08:05:24;;;;;;;2.40;0.50;;;18.30;99.90;;;;;;5012247;28;20077;-65
2022/07/15 08:07:50;;;;;;;0.68;0.30;;;18.00;99.90;;;;;;5013437;28;20488;-65
2022/07/15 08:10:19;;;;;;;2.70;0.40;;;18.10;99.90;;;;;;5013426;28;20048;-65
2022/07/15 08:12:45;;;;;;;1.98;0.40;;;18.40;99.90;;;;;;5012934;28;20052;-65
2022/07/15 08:15:11;;;;;;;3.40;0.40;;;18.30;99.90;;;;;;4995330;28;20121;-65
2022/07/15 08:17:38;;;;;;;1.77;0.30;;;18.30;99.90;;;;;;5014471;28;20510;-66
2022/07/15 08:20:08;;;;;;;3.08;0.30;;;18.40;99.90;;;;;;5011634;28;20089;-65
2022/07/15 08:22:35;;;;;;;2.28;0.82;;;18.30;99.90;;;;;;5012580;28;20046;-65
2022/07/15 08:25:00;;;;;;;1.73;0.32;;;18.50;99.90;;;;;;5013027;28;20046;-65
2022/07/15 08:27:26;;;;;;;1.65;0.52;;;18.50;99.90;;;;;;5011609;28;20034;-64
2022/07/15 08:29:52;;;;;;;2.47;0.30;;;18.50;99.90;;;;;;5011923;28;20046;-64
2022/07/15 08:32:17;;;;;;;3.47;0.40;;;18.30;99.90;;;;;;5000555;28;20045;-64
2022/07/15 08:34:43;;;;;;;4.55;0.20;;;18.50;99.90;;;;;;5012313;28;20042;-65
2022/07/15 08:37:09;;;;;;;2.97;0.30;;;18.30;99.90;;;;;;5012761;28;20037;-65
2022/07/15 08:39:39;;;;;;;0.85;0.30;;;18.50;99.90;;;;;;5006199;28;20428;-65
2022/07/15 08:42:05;;;;;;;1.63;0.40;;;18.60;99.90;;;;;;5010662;28;20412;-65
2022/07/15 08:44:32;;;;;;;1.75;0.40;;;19.40;99.90;;;;;;5009991;28;20058;-64
2022/07/15 08:47:03;;;;;;;2.55;0.30;;;18.70;99.90;;;;;;5010788;28;20057;-65
2022/07/15 08:49:31;;;;;;;1.40;0.30;;;18.60;99.90;;;;;;5011181;28;20057;-64
2022/07/15 08:51:58;;;;;;;1.10;0.40;;;18.80;99.90;;;;;;5009473;28;20036;-63
2022/07/15 08:54:24;;;;;;;2.20;0.35;;;18.80;99.90;;;;;;5011725;28;20103;-64
2022/07/15 08:56:50;;;;;;;4.30;0.30;;;18.50;99.90;;;;;;5012251;28;20053;-64
2022/07/15 08:59:17;;;;;;;3.22;0.35;;;18.90;99.90;;;;;;5012368;28;20775;-64
2022/07/15 09:01:45;;;;;;;2.70;0.50;;;18.90;99.90;;;;;;5012473;28;20788;-64
2022/07/15 09:04:11;;;;;;;0.68;0.30;;;18.90;99.90;;;;;;5011175;28;20072;-64
2022/07/15 09:06:42;;;;;;;2.72;0.32;;;18.90;99.90;;;;;;5009854;28;20073;-64
2022/07/15 09:09:25;;;;;;;0.85;0.40;;;18.80;99.90;;;;;;5008427;28;20041;-65
2022/07/15 09:12:13;;;;;;;3.45;0.40;;;18.60;99.90;;;;;;5006739;28;20038;-63
2022/07/15 09:14:42;;;;;;;2.95;0.43;;;18.60;99.90;;;;;;5011355;28;20064;-63
2022/07/15 09:17:11;;;;;;;2.08;0.38;;;18.50;99.90;;;;;;5015920;28;20044;-64
2022/07/15 09:19:55;;;;;;;2.20;0.60;;;18.60;99.90;;;;;;5013383;28;20400;-65
2022/07/15 09:22:21;;;;;;;2.93;0.50;;;18.60;99.90;;;;;;5010326;28;20049;-65
2022/07/15 09:24:50;;;;;;;2.33;0.32;;;18.20;99.90;;;;;;5011105;28;20042;-65
2022/07/15 09:27:33;;;;;;;1.85;0.47;;;18.10;99.90;;;;;;5011788;28;20053;-65
2022/07/15 09:36:01;;;;;;;2.70;0.40;;;18.70;99.90;;;;;;5011601;28;20046;-66
2022/07/15 09:38:30;;;;;;;0.75;0.30;;;18.80;99.90;;;;;;4993967;28;20030;-66
2022/07/15 09:40:56;;;;;;;0.50;0.20;;;18.90;99.90;;;;;;4999365;28;20109;-66
2022/07/15 09:43:21;;;;;;;0.68;0.30;;;19.20;99.90;;;;;;5006484;28;20054;-65
2022/07/15 09:45:56;;;;;;;1.13;0.30;;;19.00;99.90;;;;;;5011075;28;20038;-65
2022/07/15 09:48:21;;;;;;;0.73;0.35;;;18.80;99.90;;;;;;4997333;28;20408;-65
2022/07/15 09:50:48;;;;;;;0.80;0.30;;;18.60;99.90;;;;;;5010284;28;20046;-66
2022/07/15 09:53:14;;;;;;;4.57;0.40;;;18.90;99.90;;;;;;5009549;28;20037;-67
2022/07/15 09:55:43;;;;;;;1.77;0.20;;;18.70;99.90;;;;;;5011520;28;20080;-65
2022/07/15 09:58:08;;;;;;;1.55;0.30;;;18.60;99.90;;;;;;5009771;28;20057;-66
2022/07/15 10:00:37;;;;;;;2.13;0.40;;;18.50;99.90;;;;;;5011191;28;20046;-66
2022/07/15 10:03:03;;;;;;;2.42;0.30;;;18.60;99.90;;;;;;5008583;28;20038;-66
2022/07/15 10:05:30;;;;;;;2.42;0.40;;;18.80;99.90;;;;;;5009846;28;20041;-66
2022/07/15 10:08:01;;;;;;;1.15;0.30;;;18.60;99.90;;;;;;5006967;28;20568;-66
2022/07/15 10:10:27;;;;;;;1.67;0.40;;;18.80;99.90;;;;;;5003967;28;20046;-65
2022/07/15 10:13:36;;;;;;;2.47;0.32;;;18.90;99.90;;;;;;5010659;28;20052;-66
2022/07/15 10:16:28;;;;;;;0.43;0.20;;;19.00;99.90;;;;;;4947086;28;20081;-65
2022/07/15 10:19:26;;;;;;;0.40;0.20;;;18.90;99.90;;;;;;4976405;28;20061;-66
2022/07/15 10:22:19;;;;;;;1.13;0.30;;;18.90;99.90;;;;;;4997451;28;20112;-65
2022/07/15 10:24:51;;;;;;;3.95;0.38;;;19.10;99.90;;;;;;5007848;28;20042;-63
2022/07/15 10:27:44;;;;;;;3.72;0.50;;;19.20;99.90;;;;;;4997970;28;20101;-64
2022/07/15 10:30:10;;;;;;;0.88;0.40;;;19.20;99.90;;;;;;5009091;28;20038;-64
2022/07/15 10:33:06;;;;;;;2.28;0.30;;;19.40;99.90;;;;;;5010732;28;20080;-64
2022/07/15 10:35:46;;;;;;;1.85;0.40;;;19.10;99.90;;;;;;5010770;28;20042;-64
2022/07/15 10:38:26;;;;;;;1.13;0.28;;;19.00;99.90;;;;;;5009337;28;20038;-64
2022/07/15 10:40:57;;;;;;;1.30;0.40;;;19.00;99.90;;;;;;5008947;28;20057;-63
2022/07/15 10:43:39;;;;;;;0.73;0.30;;;18.70;99.90;;;;;;5006983;28;20046;-64
2022/07/15 10:46:11;;;;;;;0.75;0.30;;;18.70;99.90;;;;;;5000342;28;20046;-64
2022/07/15 10:48:37;;;;;;;1.83;0.30;;;18.70;99.90;;;;;;5008283;28;20655;-64
2022/07/15 10:51:02;;;;;;;3.40;0.40;;;18.90;99.90;;;;;;5010346;28;20073;-64
2022/07/15 10:53:29;;;;;;;0.60;0.40;;;19.00;99.90;;;;;;5010217;28;20145;-64
2022/07/15 10:55:56;;;;;;;1.98;0.20;;;19.20;99.90;;;;;;5013167;28;20046;-64
2022/07/15 10:58:21;;;;;;;1.63;0.30;;;19.60;99.90;;;;;;5004398;28;20544;-64
2022/07/15 11:00:47;;;;;;;1.45;0.30;;;19.70;99.90;;;;;;5014609;28;20151;-64
2022/07/15 11:03:19;;;;;;;2.40;0.30;;;19.70;99.90;;;;;;5013001;28;20130;-64
2022/07/15 11:05:45;;;;;;;2.10;0.20;;;19.80;99.90;;;;;;5014569;28;20042;-64
2022/07/15 11:08:36;;;;;;;1.63;0.40;;;19.80;99.90;;;;;;5013088;28;20040;-64
2022/07/15 11:11:22;;;;;;;3.63;0.40;;;20.10;99.90;;;;;;5013310;28;20488;-64
2022/07/15 11:13:49;;;;;;;1.40;0.28;;;20.00;99.90;;;;;;5003718;28;20463;-66
2022/07/15 11:16:17;;;;;;;2.70;0.45;;;19.80;99.90;;;;;;5014182;28;20073;-64
2022/07/15 11:18:47;;;;;;;2.40;0.30;;;20.10;99.90;;;;;;5020274;28;20052;-64
2022/07/15 11:21:13;;;;;;;2.55;0.20;;;19.90;99.90;;;;;;5014295;28;20044;-64
2022/07/15 11:23:39;;;;;;;0.95;0.30;;;20.00;99.90;;;;;;5014121;28;20393;-64
2022/07/15 11:26:04;;;;;;;2.15;0.30;;;19.90;99.90;;;;;;5009852;28;20117;-64
2022/07/15 11:28:30;;;;;;;2.22;0.65;;;19.90;99.90;;;;;;5010271;28;20045;-64
2022/07/15 11:30:56;;;;;;;3.30;0.43;;;19.90;99.90;;;;;;5012790;28;20095;-64
2022/07/15 11:33:27;;;;;;;1.08;0.20;;;19.60;99.90;;;;;;5012011;28;20050;-64
2022/07/15 11:35:55;;;;;;;1.50;0.30;;;19.60;99.90;;;;;;5012269;28;20084;-64
2022/07/15 11:38:23;;;;;;;2.25;0.30;;;19.90;99.90;;;;;;5003983;28;20423;-64
2022/07/15 11:46:44;;;;;;;1.75;0.40;;;20.20;99.90;;;;;;5011708;28;20132;-64
2022/07/15 11:49:10;;;;;;;1.17;0.22;;;20.10;99.90;;;;;;5010677;28;20501;-65
2022/07/15 11:51:35;;;;;;;1.75;0.32;;;20.20;99.90;;;;;;5003711;28;20050;-64
2022/07/15 11:54:01;;;;;;;1.52;0.30;;;20.30;99.90;;;;;;5011823;28;20052;-63
2022/07/15 11:56:27;;;;;;;5.57;0.43;;;20.00;99.90;;;;;;5011365;28;20050;-64
2022/07/15 11:58:55;;;;;;;1.50;0.57;;;19.90;99.90;;;;;;5011439;28;20046;-63
2022/07/15 12:01:23;;;;;;;1.75;0.45;;;20.00;99.90;;;;;;5005258;28;20575;-64
2022/07/15 12:03:52;;;;;;;2.42;0.28;;;19.90;99.90;;;;;;5004848;28;20034;-64
2022/07/15 12:06:30;;;;;;;1.40;0.20;;;20.10;99.90;;;;;;5007144;28;20144;-64
2022/07/15 12:09:02;;;;;;;0.70;0.20;;;20.00;99.90;;;;;;5009557;28;20472;-63
2022/07/15 12:11:32;;;;;;;2.60;0.40;;;19.90;99.90;;;;;;5013278;28;20049;-64
2022/07/15 12:14:01;;;;;;;3.00;0.40;;;19.70;99.90;;;;;;5007982;28;20052;-64
2022/07/15 12:16:30;;;;;;;1.13;0.30;;;19.90;99.90;;;;;;5010888;28;20052;-63
2022/07/15 12:18:58;;;;;;;1.33;0.50;;;20.00;99.90;;;;;;5010531;28;20045;-63
2022/07/15 12:21:25;;;;;;;2.35;0.75;;;19.50;99.90;;;;;;5010229;28;20048;-65
2022/07/15 12:24:17;;;;;;;0.98;0.45;;;19.70;99.90;;;;;;5012185;28;20038;-64
2022/07/15 12:26:49;;;;;;;1.42;0.32;;;20.10;99.90;;;;;;5008374;28;20056;-66
2022/07/15 12:29:20;;;;;;;3.35;0.40;;;21.50;99.90;;;;;;5009416;28;20810;-63
2022/07/15 12:32:01;;;;;;;1.85;0.30;;;19.80;99.90;;;;;;5010490;28;20116;-63
2022/07/15 12:34:51;;;;;;;1.33;0.20;;;20.00;99.90;;;;;;5011084;28;20034;-64
2022/07/15 12:37:39;;;;;;;2.53;0.40;;;19.70;99.90;;;;;;5010267;28;20159;-64
2022/07/15 12:40:09;;;;;;;1.10;0.32;;;19.90;99.90;;;;;;5010801;28;20841;-64
2022/07/15 12:42:49;;;;;;;2.20;0.30;;;19.70;99.90;;;;;;5019309;28;20053;-63
2022/07/15 12:45:22;;;;;;;2.95;0.30;;;19.60;99.90;;;;;;5011512;28;20523;-63
2022/07/15 12:48:03;;;;;;;2.38;0.20;;;19.60;99.90;;;;;;5006673;28;20503;-64
2022/07/15 12:50:51;;;;;;;3.97;0.40;;;19.40;99.90;;;;;;5012108;28;20049;-65
2022/07/15 12:53:21;;;;;;;1.77;0.35;;;19.30;99.90;;;;;;5008567;28;20058;-64
2022/07/15 12:55:49;;;;;;;2.70;0.52;;;19.30;99.90;;;;;;5010585;28;20045;-65
2022/07/15 12:58:28;;;;;;;2.30;0.40;;;19.30;99.90;;;;;;5012054;28;20109;-64
2022/07/15 13:01:14;;;;;;;1.75;0.30;;;19.40;99.90;;;;;;5010939;28;20034;-64
2022/07/15 13:03:39;;;;;;;;;;;19.60;99.90;;;;;;5006656;28;20053;-64
2022/07/15 13:06:06;;;;;;;0.88;0.40;;;19.50;99.90;;;;;;5013669;28;19921;-66
2022/07/15 13:08:35;;;;;;;1.63;0.40;;;19.30;99.90;;;;;;5012713;28;20073;-65
2022/07/15 13:11:04;;;;;;;3.70;0.40;;;19.40;99.90;;;;;;5012500;28;20036;-65